sensor_id;sensor_type;location;lat;lon;timestamp;P1;durP1;ratioP1;P2;durP2;ratioP2
42602;SDS011;28233;55.748;48.752;2023-04-01T00:00:46;3.55;;;2.20;;
42602;SDS011;28233;55.748;48.752;2023-04-01T00:02:49;3.60;;;2.40;;
42602;SDS011;28233;55.748;48.752;2023-04-01T00:04:51;3.53;;;2.05;;
42602;SDS011;28233;55.748;48.752;2023-04-01T00:06:54;3.35;;;1.85;;
42602;SDS011;28233;55.748;48.752;2023-04-01T00:08:57;4.80;;;2.30;;
42602;SDS011;28233;55.748;48.752;2023-04-01T00:10:59;2.75;;;1.80;;
42602;SDS011;28233;55.748;48.752;2023-04-01T00:13:02;4.75;;;2.28;;
42602;SDS011;28233;55.748;48.752;2023-04-01T00:15:07;3.08;;;2.45;;
42602;SDS011;28233;55.748;48.752;2023-04-01T00:17:11;3.85;;;2.45;;
42602;SDS011;28233;55.748;48.752;2023-04-01T00:19:14;4.03;;;2.28;;
42602;SDS011;28233;55.748;48.752;2023-04-01T00:21:17;6.10;;;2.63;;
42602;SDS011;28233;55.748;48.752;2023-04-01T00:23:21;6.40;;;3.15;;
42602;SDS011;28233;55.748;48.752;2023-04-01T00:25:24;6.47;;;2.58;;
42602;SDS011;28233;55.748;48.752;2023-04-01T00:27:27;3.63;;;2.17;;
42602;SDS011;28233;55.748;48.752;2023-04-01T00:29:29;3.80;;;1.75;;
42602;SDS011;28233;55.748;48.752;2023-04-01T00:31:32;3.72;;;2.45;;
42602;SDS011;28233;55.748;48.752;2023-04-01T00:33:35;3.13;;;2.55;;
42602;SDS011;28233;55.748;48.752;2023-04-01T00:35:38;3.30;;;2.88;;
42602;SDS011;28233;55.748;48.752;2023-04-01T00:37:41;4.22;;;2.30;;
42602;SDS011;28233;55.748;48.752;2023-04-01T00:39:44;4.32;;;2.55;;
42602;SDS011;28233;55.748;48.752;2023-04-01T00:41:47;3.85;;;2.67;;
42602;SDS011;28233;55.748;48.752;2023-04-01T00:43:50;3.28;;;2.58;;
42602;SDS011;28233;55.748;48.752;2023-04-01T00:45:53;3.78;;;2.42;;
42602;SDS011;28233;55.748;48.752;2023-04-01T00:47:56;2.83;;;2.03;;
42602;SDS011;28233;55.748;48.752;2023-04-01T00:50:04;4.03;;;2.58;;
42602;SDS011;28233;55.748;48.752;2023-04-01T00:52:08;5.00;;;2.72;;
42602;SDS011;28233;55.748;48.752;2023-04-01T00:54:12;2.90;;;2.42;;
42602;SDS011;28233;55.748;48.752;2023-04-01T00:56:21;6.00;;;3.30;;
42602;SDS011;28233;55.748;48.752;2023-04-01T00:58:29;3.90;;;2.67;;
42602;SDS011;28233;55.748;48.752;2023-04-01T01:00:35;5.53;;;2.58;;
42602;SDS011;28233;55.748;48.752;2023-04-01T01:02:40;4.88;;;3.08;;
42602;SDS011;28233;55.748;48.752;2023-04-01T01:04:45;5.05;;;2.28;;
42602;SDS011;28233;55.748;48.752;2023-04-01T01:06:54;4.55;;;2.65;;
42602;SDS011;28233;55.748;48.752;2023-04-01T01:09:13;3.47;;;2.70;;
42602;SDS011;28233;55.748;48.752;2023-04-01T01:11:19;4.13;;;2.90;;
42602;SDS011;28233;55.748;48.752;2023-04-01T01:13:46;4.32;;;2.45;;
42602;SDS011;28233;55.748;48.752;2023-04-01T01:16:13;4.78;;;3.25;;
42602;SDS011;28233;55.748;48.752;2023-04-01T01:23:23;5.63;;;3.42;;
42602;SDS011;28233;55.748;48.752;2023-04-01T01:31:12;7.75;;;3.40;;
42602;SDS011;28233;55.748;48.752;2023-04-01T01:33:24;6.20;;;3.60;;
42602;SDS011;28233;55.748;48.752;2023-04-01T01:37:43;5.40;;;3.30;;
42602;SDS011;28233;55.748;48.752;2023-04-01T01:39:51;7.70;;;3.92;;
42602;SDS011;28233;55.748;48.752;2023-04-01T01:41:58;6.13;;;3.47;;
42602;SDS011;28233;55.748;48.752;2023-04-01T01:44:06;5.70;;;3.85;;
42602;SDS011;28233;55.748;48.752;2023-04-01T01:46:13;5.18;;;3.08;;
42602;SDS011;28233;55.748;48.752;2023-04-01T01:48:19;5.68;;;4.03;;
42602;SDS011;28233;55.748;48.752;2023-04-01T01:50:22;6.95;;;3.30;;
42602;SDS011;28233;55.748;48.752;2023-04-01T01:52:27;5.38;;;3.67;;
42602;SDS011;28233;55.748;48.752;2023-04-01T01:54:30;5.28;;;3.30;;
42602;SDS011;28233;55.748;48.752;2023-04-01T01:56:33;6.72;;;2.53;;
42602;SDS011;28233;55.748;48.752;2023-04-01T01:59:11;6.55;;;3.00;;
42602;SDS011;28233;55.748;48.752;2023-04-01T02:01:28;4.18;;;2.95;;
42602;SDS011;28233;55.748;48.752;2023-04-01T02:03:34;6.75;;;3.42;;
42602;SDS011;28233;55.748;48.752;2023-04-01T02:05:39;5.25;;;3.38;;
42602;SDS011;28233;55.748;48.752;2023-04-01T02:07:42;6.80;;;3.67;;
42602;SDS011;28233;55.748;48.752;2023-04-01T02:09:50;4.68;;;3.05;;
42602;SDS011;28233;55.748;48.752;2023-04-01T02:12:04;4.40;;;3.13;;
42602;SDS011;28233;55.748;48.752;2023-04-01T02:14:11;7.38;;;3.60;;
42602;SDS011;28233;55.748;48.752;2023-04-01T02:16:28;4.97;;;3.40;;
42602;SDS011;28233;55.748;48.752;2023-04-01T02:18:42;7.15;;;3.55;;
42602;SDS011;28233;55.748;48.752;2023-04-01T02:20:47;6.82;;;3.83;;
42602;SDS011;28233;55.748;48.752;2023-04-01T02:22:51;6.10;;;3.10;;
42602;SDS011;28233;55.748;48.752;2023-04-01T02:25:02;4.65;;;3.22;;
42602;SDS011;28233;55.748;48.752;2023-04-01T02:29:12;5.68;;;2.80;;
42602;SDS011;28233;55.748;48.752;2023-04-01T02:31:16;5.13;;;3.20;;
42602;SDS011;28233;55.748;48.752;2023-04-01T02:33:19;4.75;;;3.25;;
42602;SDS011;28233;55.748;48.752;2023-04-01T02:35:23;7.85;;;3.28;;
42602;SDS011;28233;55.748;48.752;2023-04-01T02:37:28;5.38;;;3.78;;
42602;SDS011;28233;55.748;48.752;2023-04-01T02:39:30;5.40;;;3.35;;
42602;SDS011;28233;55.748;48.752;2023-04-01T02:41:38;6.28;;;3.08;;
42602;SDS011;28233;55.748;48.752;2023-04-01T02:43:45;6.57;;;3.03;;
42602;SDS011;28233;55.748;48.752;2023-04-01T02:45:48;5.40;;;2.97;;
42602;SDS011;28233;55.748;48.752;2023-04-01T02:47:50;6.00;;;3.40;;
42602;SDS011;28233;55.748;48.752;2023-04-01T02:49:53;7.63;;;3.10;;
42602;SDS011;28233;55.748;48.752;2023-04-01T02:52:00;5.18;;;2.92;;
42602;SDS011;28233;55.748;48.752;2023-04-01T02:54:03;5.30;;;3.30;;
42602;SDS011;28233;55.748;48.752;2023-04-01T02:56:06;5.30;;;3.20;;
42602;SDS011;28233;55.748;48.752;2023-04-01T02:58:09;6.88;;;3.17;;
42602;SDS011;28233;55.748;48.752;2023-04-01T03:00:12;4.28;;;2.90;;
42602;SDS011;28233;55.748;48.752;2023-04-01T03:02:15;7.80;;;3.65;;
42602;SDS011;28233;55.748;48.752;2023-04-01T03:04:19;6.13;;;3.85;;
42602;SDS011;28233;55.748;48.752;2023-04-01T03:06:22;5.53;;;2.88;;
42602;SDS011;28233;55.748;48.752;2023-04-01T03:08:24;7.70;;;3.72;;
42602;SDS011;28233;55.748;48.752;2023-04-01T03:10:27;5.75;;;3.35;;
42602;SDS011;28233;55.748;48.752;2023-04-01T03:12:30;5.70;;;3.05;;
42602;SDS011;28233;55.748;48.752;2023-04-01T03:14:32;6.78;;;3.22;;
42602;SDS011;28233;55.748;48.752;2023-04-01T03:16:35;4.35;;;2.88;;
42602;SDS011;28233;55.748;48.752;2023-04-01T03:18:37;5.95;;;3.30;;
42602;SDS011;28233;55.748;48.752;2023-04-01T03:20:40;5.78;;;3.25;;
42602;SDS011;28233;55.748;48.752;2023-04-01T03:22:43;5.57;;;2.97;;
42602;SDS011;28233;55.748;48.752;2023-04-01T03:24:46;5.13;;;3.88;;
42602;SDS011;28233;55.748;48.752;2023-04-01T03:26:50;6.63;;;3.15;;
42602;SDS011;28233;55.748;48.752;2023-04-01T03:28:53;6.07;;;3.10;;
42602;SDS011;28233;55.748;48.752;2023-04-01T03:30:57;4.20;;;3.13;;
42602;SDS011;28233;55.748;48.752;2023-04-01T03:33:00;5.18;;;3.45;;
42602;SDS011;28233;55.748;48.752;2023-04-01T03:35:03;4.40;;;3.00;;
42602;SDS011;28233;55.748;48.752;2023-04-01T03:37:07;4.82;;;3.47;;
42602;SDS011;28233;55.748;48.752;2023-04-01T03:39:09;4.07;;;3.03;;
42602;SDS011;28233;55.748;48.752;2023-04-01T03:41:13;5.30;;;3.42;;
42602;SDS011;28233;55.748;48.752;2023-04-01T03:43:16;3.50;;;2.47;;
42602;SDS011;28233;55.748;48.752;2023-04-01T03:45:19;4.40;;;2.40;;
42602;SDS011;28233;55.748;48.752;2023-04-01T03:47:22;3.53;;;2.67;;
42602;SDS011;28233;55.748;48.752;2023-04-01T03:49:25;5.70;;;3.20;;
42602;SDS011;28233;55.748;48.752;2023-04-01T03:51:28;5.85;;;3.00;;
42602;SDS011;28233;55.748;48.752;2023-04-01T03:53:31;4.18;;;2.88;;
42602;SDS011;28233;55.748;48.752;2023-04-01T03:55:35;6.40;;;3.53;;
42602;SDS011;28233;55.748;48.752;2023-04-01T03:57:38;4.53;;;2.88;;
42602;SDS011;28233;55.748;48.752;2023-04-01T03:59:41;8.23;;;2.75;;
42602;SDS011;28233;55.748;48.752;2023-04-01T04:01:43;4.25;;;2.97;;
42602;SDS011;28233;55.748;48.752;2023-04-01T04:03:49;5.53;;;3.72;;
42602;SDS011;28233;55.748;48.752;2023-04-01T04:05:53;4.90;;;2.95;;
42602;SDS011;28233;55.748;48.752;2023-04-01T04:07:56;4.43;;;2.88;;
42602;SDS011;28233;55.748;48.752;2023-04-01T04:09:58;8.85;;;2.95;;
42602;SDS011;28233;55.748;48.752;2023-04-01T04:12:01;3.92;;;2.80;;
42602;SDS011;28233;55.748;48.752;2023-04-01T04:14:04;5.68;;;3.25;;
42602;SDS011;28233;55.748;48.752;2023-04-01T04:16:07;5.25;;;3.80;;
42602;SDS011;28233;55.748;48.752;2023-04-01T04:18:11;7.38;;;3.47;;
42602;SDS011;28233;55.748;48.752;2023-04-01T04:20:14;8.38;;;3.22;;
42602;SDS011;28233;55.748;48.752;2023-04-01T04:22:17;5.00;;;2.92;;
42602;SDS011;28233;55.748;48.752;2023-04-01T04:24:20;6.28;;;3.35;;
42602;SDS011;28233;55.748;48.752;2023-04-01T04:26:22;5.80;;;4.03;;
42602;SDS011;28233;55.748;48.752;2023-04-01T04:28:26;5.90;;;3.95;;
42602;SDS011;28233;55.748;48.752;2023-04-01T04:30:34;5.32;;;2.95;;
42602;SDS011;28233;55.748;48.752;2023-04-01T04:32:37;4.72;;;3.08;;
42602;SDS011;28233;55.748;48.752;2023-04-01T04:34:40;4.63;;;3.05;;
42602;SDS011;28233;55.748;48.752;2023-04-01T04:36:43;5.85;;;3.03;;
42602;SDS011;28233;55.748;48.752;2023-04-01T04:38:46;5.18;;;3.38;;
42602;SDS011;28233;55.748;48.752;2023-04-01T04:40:49;6.38;;;3.60;;
42602;SDS011;28233;55.748;48.752;2023-04-01T04:42:52;5.22;;;3.47;;
42602;SDS011;28233;55.748;48.752;2023-04-01T04:44:55;8.70;;;4.45;;
42602;SDS011;28233;55.748;48.752;2023-04-01T04:46:58;7.55;;;3.58;;
42602;SDS011;28233;55.748;48.752;2023-04-01T04:49:01;6.18;;;3.85;;
42602;SDS011;28233;55.748;48.752;2023-04-01T04:51:04;5.18;;;3.28;;
42602;SDS011;28233;55.748;48.752;2023-04-01T04:53:09;5.15;;;3.08;;
42602;SDS011;28233;55.748;48.752;2023-04-01T04:55:12;4.13;;;2.58;;
42602;SDS011;28233;55.748;48.752;2023-04-01T04:57:15;5.72;;;3.55;;
42602;SDS011;28233;55.748;48.752;2023-04-01T04:59:18;6.95;;;3.58;;
42602;SDS011;28233;55.748;48.752;2023-04-01T05:01:21;5.68;;;3.35;;
42602;SDS011;28233;55.748;48.752;2023-04-01T05:03:24;5.65;;;3.38;;
42602;SDS011;28233;55.748;48.752;2023-04-01T05:05:27;4.85;;;3.22;;
42602;SDS011;28233;55.748;48.752;2023-04-01T05:07:30;7.28;;;4.38;;
42602;SDS011;28233;55.748;48.752;2023-04-01T05:09:33;4.25;;;3.13;;
42602;SDS011;28233;55.748;48.752;2023-04-01T05:11:36;4.85;;;3.38;;
42602;SDS011;28233;55.748;48.752;2023-04-01T05:13:39;5.72;;;3.90;;
42602;SDS011;28233;55.748;48.752;2023-04-01T05:15:42;7.53;;;3.65;;
42602;SDS011;28233;55.748;48.752;2023-04-01T05:17:45;5.25;;;3.35;;
42602;SDS011;28233;55.748;48.752;2023-04-01T05:19:48;5.00;;;2.97;;
42602;SDS011;28233;55.748;48.752;2023-04-01T05:21:50;7.50;;;3.17;;
42602;SDS011;28233;55.748;48.752;2023-04-01T05:23:55;8.05;;;3.70;;
42602;SDS011;28233;55.748;48.752;2023-04-01T05:25:57;6.22;;;3.03;;
42602;SDS011;28233;55.748;48.752;2023-04-01T05:28:00;4.80;;;2.80;;
42602;SDS011;28233;55.748;48.752;2023-04-01T05:30:04;6.53;;;3.38;;
42602;SDS011;28233;55.748;48.752;2023-04-01T05:32:07;5.32;;;3.17;;
42602;SDS011;28233;55.748;48.752;2023-04-01T05:34:10;6.65;;;3.85;;
42602;SDS011;28233;55.748;48.752;2023-04-01T05:36:16;4.90;;;3.28;;
42602;SDS011;28233;55.748;48.752;2023-04-01T05:38:19;7.95;;;4.32;;
42602;SDS011;28233;55.748;48.752;2023-04-01T05:40:22;7.05;;;3.15;;
42602;SDS011;28233;55.748;48.752;2023-04-01T05:42:24;6.82;;;3.30;;
42602;SDS011;28233;55.748;48.752;2023-04-01T05:44:27;6.22;;;4.18;;
42602;SDS011;28233;55.748;48.752;2023-04-01T05:46:30;4.68;;;2.92;;
42602;SDS011;28233;55.748;48.752;2023-04-01T05:48:34;5.40;;;2.65;;
42602;SDS011;28233;55.748;48.752;2023-04-01T05:50:37;5.65;;;2.90;;
42602;SDS011;28233;55.748;48.752;2023-04-01T05:52:42;5.22;;;3.33;;
42602;SDS011;28233;55.748;48.752;2023-04-01T05:54:45;6.45;;;3.05;;
42602;SDS011;28233;55.748;48.752;2023-04-01T05:56:47;5.65;;;3.25;;
42602;SDS011;28233;55.748;48.752;2023-04-01T05:58:51;4.18;;;2.53;;
42602;SDS011;28233;55.748;48.752;2023-04-01T06:01:06;4.00;;;2.80;;
42602;SDS011;28233;55.748;48.752;2023-04-01T06:03:16;7.93;;;2.78;;
42602;SDS011;28233;55.748;48.752;2023-04-01T06:05:20;4.47;;;3.22;;
42602;SDS011;28233;55.748;48.752;2023-04-01T06:07:25;8.50;;;3.70;;
42602;SDS011;28233;55.748;48.752;2023-04-01T06:09:29;5.85;;;3.03;;
42602;SDS011;28233;55.748;48.752;2023-04-01T06:11:57;6.95;;;2.60;;
42602;SDS011;28233;55.748;48.752;2023-04-01T06:16:42;7.25;;;3.45;;
42602;SDS011;28233;55.748;48.752;2023-04-01T06:26:26;5.37;;;3.70;;
42602;SDS011;28233;55.748;48.752;2023-04-01T06:31:05;5.53;;;3.22;;
42602;SDS011;28233;55.748;48.752;2023-04-01T06:53:28;5.05;;;2.95;;
42602;SDS011;28233;55.748;48.752;2023-04-01T06:55:36;6.72;;;3.45;;
42602;SDS011;28233;55.748;48.752;2023-04-01T06:57:45;7.47;;;3.35;;
42602;SDS011;28233;55.748;48.752;2023-04-01T06:59:52;6.60;;;3.75;;
42602;SDS011;28233;55.748;48.752;2023-04-01T07:06:53;4.93;;;2.67;;
42602;SDS011;28233;55.748;48.752;2023-04-01T07:09:02;5.97;;;2.33;;
42602;SDS011;28233;55.748;48.752;2023-04-01T07:11:11;8.20;;;2.97;;
42602;SDS011;28233;55.748;48.752;2023-04-01T07:13:51;4.13;;;2.45;;
42602;SDS011;28233;55.748;48.752;2023-04-01T07:16:03;5.57;;;2.50;;
42602;SDS011;28233;55.748;48.752;2023-04-01T07:18:19;8.23;;;2.55;;
42602;SDS011;28233;55.748;48.752;2023-04-01T07:20:39;5.40;;;2.83;;
42602;SDS011;28233;55.748;48.752;2023-04-01T07:22:51;8.15;;;3.53;;
42602;SDS011;28233;55.748;48.752;2023-04-01T07:25:03;10.00;;;2.83;;
42602;SDS011;28233;55.748;48.752;2023-04-01T07:27:14;6.43;;;3.08;;
42602;SDS011;28233;55.748;48.752;2023-04-01T07:29:17;5.75;;;2.80;;
42602;SDS011;28233;55.748;48.752;2023-04-01T07:33:38;7.15;;;2.58;;
42602;SDS011;28233;55.748;48.752;2023-04-01T07:35:53;3.85;;;2.60;;
42602;SDS011;28233;55.748;48.752;2023-04-01T07:40:34;4.13;;;2.25;;
42602;SDS011;28233;55.748;48.752;2023-04-01T07:45:54;3.33;;;2.00;;
42602;SDS011;28233;55.748;48.752;2023-04-01T07:55:08;4.55;;;2.67;;
42602;SDS011;28233;55.748;48.752;2023-04-01T07:57:20;3.25;;;2.28;;
42602;SDS011;28233;55.748;48.752;2023-04-01T08:18:46;5.53;;;2.28;;
42602;SDS011;28233;55.748;48.752;2023-04-01T08:21:01;7.35;;;2.65;;
42602;SDS011;28233;55.748;48.752;2023-04-01T08:23:11;5.53;;;2.80;;
42602;SDS011;28233;55.748;48.752;2023-04-01T08:25:25;5.25;;;2.88;;
42602;SDS011;28233;55.748;48.752;2023-04-01T08:27:37;9.43;;;3.53;;
42602;SDS011;28233;55.748;48.752;2023-04-01T08:29:57;7.85;;;2.40;;
42602;SDS011;28233;55.748;48.752;2023-04-01T08:34:38;5.03;;;2.30;;
42602;SDS011;28233;55.748;48.752;2023-04-01T08:36:43;3.67;;;1.92;;
42602;SDS011;28233;55.748;48.752;2023-04-01T08:38:53;4.38;;;2.00;;
42602;SDS011;28233;55.748;48.752;2023-04-01T08:48:08;2.97;;;2.08;;
42602;SDS011;28233;55.748;48.752;2023-04-01T08:55:22;3.00;;;1.63;;
42602;SDS011;28233;55.748;48.752;2023-04-01T09:09:58;5.38;;;2.33;;
42602;SDS011;28233;55.748;48.752;2023-04-01T09:12:35;3.05;;;2.00;;
42602;SDS011;28233;55.748;48.752;2023-04-01T09:22:50;6.70;;;3.33;;
42602;SDS011;28233;55.748;48.752;2023-04-01T09:35:37;8.20;;;2.13;;
42602;SDS011;28233;55.748;48.752;2023-04-01T09:42:29;3.70;;;2.03;;
42602;SDS011;28233;55.748;48.752;2023-04-01T09:52:36;3.88;;;1.65;;
42602;SDS011;28233;55.748;48.752;2023-04-01T09:54:26;2.22;;;1.30;;
42602;SDS011;28233;55.748;48.752;2023-04-01T09:57:10;2.83;;;1.35;;
42602;SDS011;28233;55.748;48.752;2023-04-01T10:06:22;3.03;;;2.28;;
42602;SDS011;28233;55.748;48.752;2023-04-01T10:11:12;2.53;;;1.60;;
42602;SDS011;28233;55.748;48.752;2023-04-01T10:16:31;2.90;;;1.60;;
42602;SDS011;28233;55.748;48.752;2023-04-01T10:19:20;3.65;;;1.50;;
42602;SDS011;28233;55.748;48.752;2023-04-01T10:31:02;3.63;;;1.67;;
42602;SDS011;28233;55.748;48.752;2023-04-01T10:38:56;6.60;;;2.53;;
42602;SDS011;28233;55.748;48.752;2023-04-01T10:44:09;3.72;;;1.90;;
42602;SDS011;28233;55.748;48.752;2023-04-01T10:46:19;7.22;;;1.80;;
42602;SDS011;28233;55.748;48.752;2023-04-01T10:53:40;3.13;;;1.67;;
42602;SDS011;28233;55.748;48.752;2023-04-01T10:58:24;3.42;;;1.58;;
42602;SDS011;28233;55.748;48.752;2023-04-01T11:08:21;2.47;;;1.63;;
42602;SDS011;28233;55.748;48.752;2023-04-01T11:10:21;2.80;;;1.73;;
42602;SDS011;28233;55.748;48.752;2023-04-01T11:24:53;3.22;;;1.90;;
42602;SDS011;28233;55.748;48.752;2023-04-01T11:29:43;3.78;;;1.63;;
42602;SDS011;28233;55.748;48.752;2023-04-01T11:39:11;6.72;;;3.80;;
42602;SDS011;28233;55.748;48.752;2023-04-01T11:51:42;4.07;;;2.33;;
42602;SDS011;28233;55.748;48.752;2023-04-01T11:54:19;2.30;;;1.48;;
42602;SDS011;28233;55.748;48.752;2023-04-01T11:59:06;2.58;;;1.58;;
42602;SDS011;28233;55.748;48.752;2023-04-01T12:15:01;3.72;;;1.95;;
42602;SDS011;28233;55.748;48.752;2023-04-01T12:17:26;5.32;;;2.00;;
42602;SDS011;28233;55.748;48.752;2023-04-01T12:19:48;3.80;;;1.83;;
42602;SDS011;28233;55.748;48.752;2023-04-01T12:25:02;2.13;;;1.58;;
42602;SDS011;28233;55.748;48.752;2023-04-01T12:27:11;5.90;;;1.40;;
42602;SDS011;28233;55.748;48.752;2023-04-01T12:30:14;3.92;;;1.88;;
42602;SDS011;28233;55.748;48.752;2023-04-01T12:32:17;3.70;;;1.58;;
42602;SDS011;28233;55.748;48.752;2023-04-01T12:37:12;3.28;;;1.90;;
42602;SDS011;28233;55.748;48.752;2023-04-01T12:42:13;3.22;;;1.60;;
42602;SDS011;28233;55.748;48.752;2023-04-01T12:49:21;3.58;;;2.00;;
42602;SDS011;28233;55.748;48.752;2023-04-01T12:56:39;4.13;;;2.00;;
42602;SDS011;28233;55.748;48.752;2023-04-01T12:58:59;6.68;;;1.92;;
42602;SDS011;28233;55.748;48.752;2023-04-01T13:03:34;4.95;;;1.50;;
42602;SDS011;28233;55.748;48.752;2023-04-01T13:15:35;2.53;;;1.65;;
42602;SDS011;28233;55.748;48.752;2023-04-01T13:22:21;3.63;;;1.92;;
42602;SDS011;28233;55.748;48.752;2023-04-01T13:24:52;4.50;;;1.77;;
42602;SDS011;28233;55.748;48.752;2023-04-01T13:29:21;4.00;;;1.83;;
42602;SDS011;28233;55.748;48.752;2023-04-01T13:31:44;3.00;;;1.77;;
42602;SDS011;28233;55.748;48.752;2023-04-01T13:34:05;2.65;;;1.27;;
42602;SDS011;28233;55.748;48.752;2023-04-01T13:42:33;12.77;;;2.05;;
42602;SDS011;28233;55.748;48.752;2023-04-01T13:51:31;6.75;;;2.65;;
42602;SDS011;28233;55.748;48.752;2023-04-01T14:24:36;3.80;;;1.88;;
42602;SDS011;28233;55.748;48.752;2023-04-01T14:27:18;2.17;;;1.60;;
42602;SDS011;28233;55.748;48.752;2023-04-01T14:44:33;5.45;;;2.00;;
42602;SDS011;28233;55.748;48.752;2023-04-01T14:48:57;4.68;;;2.28;;
42602;SDS011;28233;55.748;48.752;2023-04-01T14:51:39;4.57;;;1.80;;
42602;SDS011;28233;55.748;48.752;2023-04-01T14:53:53;3.35;;;2.10;;
42602;SDS011;28233;55.748;48.752;2023-04-01T14:56:08;4.82;;;2.45;;
42602;SDS011;28233;55.748;48.752;2023-04-01T14:58:14;4.53;;;2.35;;
42602;SDS011;28233;55.748;48.752;2023-04-01T15:00:19;3.10;;;1.90;;
42602;SDS011;28233;55.748;48.752;2023-04-01T15:02:31;4.82;;;2.47;;
42602;SDS011;28233;55.748;48.752;2023-04-01T15:06:56;4.22;;;2.42;;
42602;SDS011;28233;55.748;48.752;2023-04-01T15:09:17;2.25;;;1.60;;
42602;SDS011;28233;55.748;48.752;2023-04-01T15:12:07;3.53;;;2.00;;
42602;SDS011;28233;55.748;48.752;2023-04-01T15:24:15;5.43;;;1.40;;
42602;SDS011;28233;55.748;48.752;2023-04-01T15:28:56;2.42;;;1.45;;
42602;SDS011;28233;55.748;48.752;2023-04-01T15:36:22;2.92;;;1.73;;
42602;SDS011;28233;55.748;48.752;2023-04-01T15:38:48;1.67;;;1.15;;
42602;SDS011;28233;55.748;48.752;2023-04-01T15:41:27;1.77;;;0.82;;
42602;SDS011;28233;55.748;48.752;2023-04-01T15:43:40;2.42;;;1.30;;
42602;SDS011;28233;55.748;48.752;2023-04-01T15:50:25;3.15;;;1.58;;
42602;SDS011;28233;55.748;48.752;2023-04-01T15:55:36;2.80;;;1.30;;
42602;SDS011;28233;55.748;48.752;2023-04-01T15:58:04;1.45;;;1.23;;
42602;SDS011;28233;55.748;48.752;2023-04-01T16:00:10;4.57;;;1.10;;
42602;SDS011;28233;55.748;48.752;2023-04-01T16:02:39;2.25;;;1.50;;
42602;SDS011;28233;55.748;48.752;2023-04-01T16:07:11;3.47;;;1.10;;
42602;SDS011;28233;55.748;48.752;2023-04-01T16:09:33;2.15;;;1.63;;
42602;SDS011;28233;55.748;48.752;2023-04-01T16:14:08;2.90;;;1.63;;
42602;SDS011;28233;55.748;48.752;2023-04-01T16:19:02;2.97;;;1.60;;
42602;SDS011;28233;55.748;48.752;2023-04-01T16:21:38;4.75;;;1.60;;
42602;SDS011;28233;55.748;48.752;2023-04-01T16:24:30;2.75;;;1.73;;
42602;SDS011;28233;55.748;48.752;2023-04-01T16:26:48;2.33;;;1.50;;
42602;SDS011;28233;55.748;48.752;2023-04-01T16:33:32;4.78;;;1.90;;
42602;SDS011;28233;55.748;48.752;2023-04-01T16:36:07;5.47;;;2.00;;
42602;SDS011;28233;55.748;48.752;2023-04-01T16:42:54;2.97;;;2.20;;
42602;SDS011;28233;55.748;48.752;2023-04-01T16:47:32;1.90;;;1.55;;
42602;SDS011;28233;55.748;48.752;2023-04-01T16:59:01;3.35;;;1.88;;
42602;SDS011;28233;55.748;48.752;2023-04-01T17:03:32;2.78;;;1.60;;
42602;SDS011;28233;55.748;48.752;2023-04-01T17:06:00;2.70;;;1.55;;
42602;SDS011;28233;55.748;48.752;2023-04-01T17:08:29;2.92;;;1.63;;
42602;SDS011;28233;55.748;48.752;2023-04-01T17:18:20;1.85;;;1.00;;
42602;SDS011;28233;55.748;48.752;2023-04-01T17:20:46;3.85;;;1.83;;
42602;SDS011;28233;55.748;48.752;2023-04-01T17:34:38;2.42;;;1.40;;
42602;SDS011;28233;55.748;48.752;2023-04-01T17:37:09;3.20;;;1.90;;
42602;SDS011;28233;55.748;48.752;2023-04-01T17:41:46;3.70;;;2.10;;
42602;SDS011;28233;55.748;48.752;2023-04-01T17:48:34;3.33;;;1.95;;
42602;SDS011;28233;55.748;48.752;2023-04-01T17:53:23;4.32;;;1.90;;
42602;SDS011;28233;55.748;48.752;2023-04-01T17:55:46;4.40;;;1.80;;
42602;SDS011;28233;55.748;48.752;2023-04-01T18:00:24;3.60;;;1.92;;
42602;SDS011;28233;55.748;48.752;2023-04-01T18:07:54;2.70;;;1.45;;
42602;SDS011;28233;55.748;48.752;2023-04-01T18:26:38;4.93;;;1.70;;
42602;SDS011;28233;55.748;48.752;2023-04-01T18:28:56;4.45;;;2.08;;
42602;SDS011;28233;55.748;48.752;2023-04-01T18:35:41;6.15;;;1.30;;
42602;SDS011;28233;55.748;48.752;2023-04-01T18:40:35;4.53;;;1.70;;
42602;SDS011;28233;55.748;48.752;2023-04-01T18:47:24;3.63;;;1.50;;
42602;SDS011;28233;55.748;48.752;2023-04-01T18:52:27;3.22;;;1.75;;
42602;SDS011;28233;55.748;48.752;2023-04-01T18:59:28;2.55;;;1.65;;
42602;SDS011;28233;55.748;48.752;2023-04-01T19:02:07;2.67;;;2.40;;
42602;SDS011;28233;55.748;48.752;2023-04-01T19:06:49;3.97;;;2.17;;
42602;SDS011;28233;55.748;48.752;2023-04-01T19:08:54;4.95;;;2.40;;
42602;SDS011;28233;55.748;48.752;2023-04-01T19:25:23;5.50;;;1.92;;
42602;SDS011;28233;55.748;48.752;2023-04-01T19:27:41;2.92;;;1.10;;
42602;SDS011;28233;55.748;48.752;2023-04-01T19:35:03;5.55;;;1.67;;
42602;SDS011;28233;55.748;48.752;2023-04-01T19:40:01;5.07;;;1.73;;
42602;SDS011;28233;55.748;48.752;2023-04-01T19:44:35;5.93;;;2.13;;
42602;SDS011;28233;55.748;48.752;2023-04-01T19:47:30;3.85;;;1.90;;
42602;SDS011;28233;55.748;48.752;2023-04-01T19:56:23;3.13;;;1.52;;
42602;SDS011;28233;55.748;48.752;2023-04-01T19:58:40;4.17;;;2.53;;
42602;SDS011;28233;55.748;48.752;2023-04-01T20:01:06;5.18;;;2.15;;
42602;SDS011;28233;55.748;48.752;2023-04-01T20:05:29;4.70;;;2.22;;
42602;SDS011;28233;55.748;48.752;2023-04-01T20:07:41;5.43;;;2.00;;
42602;SDS011;28233;55.748;48.752;2023-04-01T20:15:04;4.32;;;2.10;;
42602;SDS011;28233;55.748;48.752;2023-04-01T20:17:41;2.58;;;1.80;;
42602;SDS011;28233;55.748;48.752;2023-04-01T20:20:14;3.08;;;1.80;;
42602;SDS011;28233;55.748;48.752;2023-04-01T20:22:31;5.90;;;2.17;;
42602;SDS011;28233;55.748;48.752;2023-04-01T20:24:46;6.00;;;2.30;;
42602;SDS011;28233;55.748;48.752;2023-04-01T20:27:08;3.95;;;2.08;;
42602;SDS011;28233;55.748;48.752;2023-04-01T20:31:42;4.55;;;2.70;;
42602;SDS011;28233;55.748;48.752;2023-04-01T20:47:51;3.70;;;1.90;;
42602;SDS011;28233;55.748;48.752;2023-04-01T20:52:38;5.88;;;1.90;;
42602;SDS011;28233;55.748;48.752;2023-04-01T21:16:57;5.95;;;2.10;;
42602;SDS011;28233;55.748;48.752;2023-04-01T21:19:06;4.90;;;2.10;;
42602;SDS011;28233;55.748;48.752;2023-04-01T21:28:51;3.92;;;1.40;;
42602;SDS011;28233;55.748;48.752;2023-04-01T21:48:52;2.72;;;1.60;;
42602;SDS011;28233;55.748;48.752;2023-04-01T21:50:42;2.47;;;1.77;;
42602;SDS011;28233;55.748;48.752;2023-04-01T22:00:29;3.90;;;2.03;;
42602;SDS011;28233;55.748;48.752;2023-04-01T22:21:56;3.47;;;2.00;;
42602;SDS011;28233;55.748;48.752;2023-04-01T22:28:51;2.60;;;1.77;;
42602;SDS011;28233;55.748;48.752;2023-04-01T22:30:59;3.10;;;1.52;;
42602;SDS011;28233;55.748;48.752;2023-04-01T22:37:47;3.63;;;1.90;;
42602;SDS011;28233;55.748;48.752;2023-04-01T22:40:10;3.85;;;2.05;;
42602;SDS011;28233;55.748;48.752;2023-04-01T22:42:42;6.85;;;2.20;;
42602;SDS011;28233;55.748;48.752;2023-04-01T22:51:22;4.28;;;1.90;;
42602;SDS011;28233;55.748;48.752;2023-04-01T22:53:59;6.80;;;2.35;;
42602;SDS011;28233;55.748;48.752;2023-04-01T22:56:22;3.08;;;2.08;;
42602;SDS011;28233;55.748;48.752;2023-04-01T22:58:33;3.58;;;2.13;;
42602;SDS011;28233;55.748;48.752;2023-04-01T23:00:45;4.97;;;2.58;;
42602;SDS011;28233;55.748;48.752;2023-04-01T23:03:41;6.65;;;2.55;;
42602;SDS011;28233;55.748;48.752;2023-04-01T23:05:30;3.97;;;2.47;;
42602;SDS011;28233;55.748;48.752;2023-04-01T23:07:58;7.85;;;2.40;;
42602;SDS011;28233;55.748;48.752;2023-04-01T23:10:12;5.75;;;2.10;;
42602;SDS011;28233;55.748;48.752;2023-04-01T23:12:21;3.08;;;1.90;;
42602;SDS011;28233;55.748;48.752;2023-04-01T23:15:00;3.50;;;1.88;;